sensor_id;sensor_type;location;lat;lon;timestamp;P1;durP1;ratioP1;P2;durP2;ratioP2
46875;SDS011;32866;50.160;14.768;2022-11-15T00:00:32;72.15;;;38.05;;
46875;SDS011;32866;50.160;14.768;2022-11-15T00:02:57;68.25;;;35.92;;
46875;SDS011;32866;50.160;14.768;2022-11-15T00:05:23;67.65;;;35.78;;
46875;SDS011;32866;50.160;14.768;2022-11-15T00:07:48;59.38;;;34.20;;
46875;SDS011;32866;50.160;14.768;2022-11-15T00:10:13;64.40;;;36.78;;
46875;SDS011;32866;50.160;14.768;2022-11-15T00:12:39;65.35;;;35.20;;
46875;SDS011;32866;50.160;14.768;2022-11-15T00:15:04;59.80;;;34.78;;
46875;SDS011;32866;50.160;14.768;2022-11-15T00:17:30;73.95;;;37.15;;
46875;SDS011;32866;50.160;14.768;2022-11-15T00:19:55;56.50;;;32.70;;
46875;SDS011;32866;50.160;14.768;2022-11-15T00:22:22;67.25;;;36.63;;
46875;SDS011;32866;50.160;14.768;2022-11-15T00:24:47;54.20;;;31.93;;
46875;SDS011;32866;50.160;14.768;2022-11-15T00:27:13;64.28;;;33.85;;
46875;SDS011;32866;50.160;14.768;2022-11-15T00:29:38;67.82;;;35.72;;
46875;SDS011;32866;50.160;14.768;2022-11-15T00:32:08;67.57;;;36.63;;
46875;SDS011;32866;50.160;14.768;2022-11-15T00:34:36;73.30;;;36.70;;
46875;SDS011;32866;50.160;14.768;2022-11-15T00:37:02;61.53;;;36.72;;
46875;SDS011;32866;50.160;14.768;2022-11-15T00:39:27;68.90;;;34.78;;
46875;SDS011;32866;50.160;14.768;2022-11-15T00:41:53;68.75;;;35.25;;
46875;SDS011;32866;50.160;14.768;2022-11-15T00:44:18;60.13;;;35.38;;
46875;SDS011;32866;50.160;14.768;2022-11-15T00:46:43;55.45;;;31.48;;
46875;SDS011;32866;50.160;14.768;2022-11-15T00:49:09;60.33;;;34.95;;
46875;SDS011;32866;50.160;14.768;2022-11-15T00:51:34;60.38;;;35.65;;
46875;SDS011;32866;50.160;14.768;2022-11-15T00:54:00;67.13;;;33.10;;
46875;SDS011;32866;50.160;14.768;2022-11-15T00:56:25;51.75;;;31.92;;
46875;SDS011;32866;50.160;14.768;2022-11-15T00:58:50;64.50;;;33.13;;
46875;SDS011;32866;50.160;14.768;2022-11-15T01:01:17;61.20;;;35.00;;
46875;SDS011;32866;50.160;14.768;2022-11-15T01:03:42;63.67;;;34.95;;
46875;SDS011;32866;50.160;14.768;2022-11-15T01:06:08;59.83;;;33.03;;
46875;SDS011;32866;50.160;14.768;2022-11-15T01:08:33;49.72;;;31.42;;
46875;SDS011;32866;50.160;14.768;2022-11-15T01:11:00;49.10;;;30.80;;
46875;SDS011;32866;50.160;14.768;2022-11-15T01:13:30;59.70;;;32.63;;
46875;SDS011;32866;50.160;14.768;2022-11-15T01:15:56;60.00;;;34.57;;
46875;SDS011;32866;50.160;14.768;2022-11-15T01:18:22;77.25;;;37.17;;
46875;SDS011;32866;50.160;14.768;2022-11-15T01:20:47;58.22;;;34.63;;
46875;SDS011;32866;50.160;14.768;2022-11-15T01:23:12;62.05;;;34.85;;
46875;SDS011;32866;50.160;14.768;2022-11-15T01:25:38;67.25;;;34.42;;
46875;SDS011;32866;50.160;14.768;2022-11-15T01:28:03;61.33;;;33.50;;
46875;SDS011;32866;50.160;14.768;2022-11-15T01:30:28;47.45;;;29.10;;
46875;SDS011;32866;50.160;14.768;2022-11-15T01:32:54;55.38;;;31.58;;
46875;SDS011;32866;50.160;14.768;2022-11-15T01:35:19;77.88;;;36.58;;
46875;SDS011;32866;50.160;14.768;2022-11-15T01:37:45;66.87;;;35.73;;
46875;SDS011;32866;50.160;14.768;2022-11-15T01:40:11;64.20;;;35.35;;
46875;SDS011;32866;50.160;14.768;2022-11-15T01:42:36;75.20;;;35.70;;
46875;SDS011;32866;50.160;14.768;2022-11-15T01:45:02;64.57;;;34.13;;
46875;SDS011;32866;50.160;14.768;2022-11-15T01:47:28;64.90;;;35.58;;
46875;SDS011;32866;50.160;14.768;2022-11-15T01:52:31;67.60;;;35.17;;
46875;SDS011;32866;50.160;14.768;2022-11-15T01:55:01;59.00;;;34.53;;
46875;SDS011;32866;50.160;14.768;2022-11-15T01:57:30;65.90;;;38.97;;
46875;SDS011;32866;50.160;14.768;2022-11-15T01:59:55;79.60;;;36.70;;
46875;SDS011;32866;50.160;14.768;2022-11-15T02:02:23;62.50;;;35.27;;
46875;SDS011;32866;50.160;14.768;2022-11-15T02:07:17;67.27;;;34.27;;
46875;SDS011;32866;50.160;14.768;2022-11-15T02:09:44;75.27;;;36.37;;
46875;SDS011;32866;50.160;14.768;2022-11-15T02:12:11;71.37;;;36.60;;
46875;SDS011;32866;50.160;14.768;2022-11-15T02:14:42;74.07;;;35.40;;
46875;SDS011;32866;50.160;14.768;2022-11-15T02:17:19;68.57;;;36.30;;
46875;SDS011;32866;50.160;14.768;2022-11-15T02:20:06;68.93;;;36.90;;
46875;SDS011;32866;50.160;14.768;2022-11-15T02:34:35;57.93;;;32.27;;
46875;SDS011;32866;50.160;14.768;2022-11-15T02:42:45;76.43;;;33.27;;
46875;SDS011;32866;50.160;14.768;2022-11-15T02:45:42;65.90;;;34.93;;
46875;SDS011;32866;50.160;14.768;2022-11-15T02:48:11;64.67;;;34.67;;
46875;SDS011;32866;50.160;14.768;2022-11-15T02:50:37;69.97;;;35.17;;
46875;SDS011;32866;50.160;14.768;2022-11-15T02:53:03;70.65;;;36.58;;
46875;SDS011;32866;50.160;14.768;2022-11-15T02:55:29;70.93;;;34.78;;
46875;SDS011;32866;50.160;14.768;2022-11-15T02:58:01;71.67;;;34.60;;
46875;SDS011;32866;50.160;14.768;2022-11-15T03:00:54;72.37;;;35.90;;
46875;SDS011;32866;50.160;14.768;2022-11-15T03:03:41;78.53;;;35.93;;
46875;SDS011;32866;50.160;14.768;2022-11-15T03:09:03;73.37;;;34.83;;
46875;SDS011;32866;50.160;14.768;2022-11-15T03:11:38;72.70;;;33.83;;
46875;SDS011;32866;50.160;14.768;2022-11-15T03:14:18;61.37;;;32.70;;
46875;SDS011;32866;50.160;14.768;2022-11-15T03:22:10;65.87;;;31.33;;
46875;SDS011;32866;50.160;14.768;2022-11-15T03:24:40;60.03;;;29.13;;
46875;SDS011;32866;50.160;14.768;2022-11-15T03:27:08;56.07;;;28.70;;
46875;SDS011;32866;50.160;14.768;2022-11-15T03:29:38;61.03;;;28.00;;
46875;SDS011;32866;50.160;14.768;2022-11-15T03:32:08;49.77;;;27.73;;
46875;SDS011;32866;50.160;14.768;2022-11-15T03:37:20;48.17;;;27.83;;
46875;SDS011;32866;50.160;14.768;2022-11-15T03:39:49;56.43;;;30.57;;
46875;SDS011;32866;50.160;14.768;2022-11-15T03:47:21;61.70;;;30.93;;
46875;SDS011;32866;50.160;14.768;2022-11-15T03:50:13;56.30;;;27.67;;
46875;SDS011;32866;50.160;14.768;2022-11-15T03:52:42;73.27;;;32.50;;
46875;SDS011;32866;50.160;14.768;2022-11-15T03:55:11;70.57;;;32.17;;
46875;SDS011;32866;50.160;14.768;2022-11-15T03:57:39;65.73;;;30.67;;
46875;SDS011;32866;50.160;14.768;2022-11-15T04:00:05;57.47;;;32.10;;
46875;SDS011;32866;50.160;14.768;2022-11-15T04:02:31;71.53;;;31.93;;
46875;SDS011;32866;50.160;14.768;2022-11-15T04:04:56;71.22;;;32.95;;
46875;SDS011;32866;50.160;14.768;2022-11-15T04:07:22;57.95;;;30.35;;
46875;SDS011;32866;50.160;14.768;2022-11-15T04:09:47;72.35;;;30.85;;
46875;SDS011;32866;50.160;14.768;2022-11-15T04:12:28;64.20;;;29.83;;
46875;SDS011;32866;50.160;14.768;2022-11-15T04:17:35;67.00;;;31.03;;
46875;SDS011;32866;50.160;14.768;2022-11-15T04:20:06;56.83;;;29.27;;
46875;SDS011;32866;50.160;14.768;2022-11-15T04:22:53;52.90;;;28.47;;
46875;SDS011;32866;50.160;14.768;2022-11-15T04:25:42;69.73;;;30.70;;
46875;SDS011;32866;50.160;14.768;2022-11-15T04:28:09;64.20;;;31.40;;
46875;SDS011;32866;50.160;14.768;2022-11-15T04:30:47;61.17;;;32.08;;
46875;SDS011;32866;50.160;14.768;2022-11-15T04:33:12;54.13;;;29.23;;
46875;SDS011;32866;50.160;14.768;2022-11-15T04:35:38;61.63;;;31.58;;
46875;SDS011;32866;50.160;14.768;2022-11-15T04:38:05;58.60;;;29.77;;
46875;SDS011;32866;50.160;14.768;2022-11-15T04:40:32;58.03;;;29.43;;
46875;SDS011;32866;50.160;14.768;2022-11-15T04:45:24;51.20;;;25.80;;
46875;SDS011;32866;50.160;14.768;2022-11-15T04:47:49;57.05;;;29.20;;
46875;SDS011;32866;50.160;14.768;2022-11-15T04:50:15;54.13;;;28.80;;
46875;SDS011;32866;50.160;14.768;2022-11-15T04:55:07;51.23;;;26.80;;
46875;SDS011;32866;50.160;14.768;2022-11-15T04:57:34;56.03;;;29.40;;
46875;SDS011;32866;50.160;14.768;2022-11-15T04:59:59;53.20;;;28.60;;
46875;SDS011;32866;50.160;14.768;2022-11-15T05:02:24;47.83;;;27.83;;
46875;SDS011;32866;50.160;14.768;2022-11-15T05:07:45;60.17;;;29.33;;
46875;SDS011;32866;50.160;14.768;2022-11-15T05:10:10;59.13;;;28.40;;
46875;SDS011;32866;50.160;14.768;2022-11-15T05:12:36;48.85;;;26.33;;
46875;SDS011;32866;50.160;14.768;2022-11-15T05:15:02;55.40;;;31.05;;
46875;SDS011;32866;50.160;14.768;2022-11-15T05:17:27;58.78;;;28.70;;
46875;SDS011;32866;50.160;14.768;2022-11-15T05:19:53;63.05;;;31.65;;
46875;SDS011;32866;50.160;14.768;2022-11-15T05:22:18;54.35;;;27.67;;
46875;SDS011;32866;50.160;14.768;2022-11-15T05:24:44;59.80;;;31.33;;
46875;SDS011;32866;50.160;14.768;2022-11-15T05:27:09;63.42;;;30.35;;
46875;SDS011;32866;50.160;14.768;2022-11-15T05:29:35;60.05;;;31.70;;
46875;SDS011;32866;50.160;14.768;2022-11-15T05:32:00;56.80;;;28.80;;
46875;SDS011;32866;50.160;14.768;2022-11-15T05:34:26;51.97;;;27.40;;
46875;SDS011;32866;50.160;14.768;2022-11-15T05:36:51;50.58;;;27.90;;
46875;SDS011;32866;50.160;14.768;2022-11-15T05:39:17;55.60;;;29.92;;
46875;SDS011;32866;50.160;14.768;2022-11-15T05:41:46;56.10;;;29.27;;
46875;SDS011;32866;50.160;14.768;2022-11-15T05:44:17;66.80;;;31.10;;
46875;SDS011;32866;50.160;14.768;2022-11-15T05:46:45;66.73;;;30.70;;
46875;SDS011;32866;50.160;14.768;2022-11-15T05:49:15;56.67;;;28.47;;
46875;SDS011;32866;50.160;14.768;2022-11-15T05:51:44;43.60;;;24.23;;
46875;SDS011;32866;50.160;14.768;2022-11-15T05:54:12;46.83;;;27.23;;
46875;SDS011;32866;50.160;14.768;2022-11-15T05:56:37;52.83;;;28.40;;
46875;SDS011;32866;50.160;14.768;2022-11-15T05:59:03;49.35;;;24.77;;
46875;SDS011;32866;50.160;14.768;2022-11-15T06:01:29;56.30;;;27.17;;
46875;SDS011;32866;50.160;14.768;2022-11-15T06:03:54;48.85;;;24.08;;
46875;SDS011;32866;50.160;14.768;2022-11-15T06:06:20;47.70;;;25.65;;
46875;SDS011;32866;50.160;14.768;2022-11-15T06:08:45;47.45;;;25.15;;
46875;SDS011;32866;50.160;14.768;2022-11-15T06:11:12;40.33;;;23.33;;
46875;SDS011;32866;50.160;14.768;2022-11-15T06:13:38;48.65;;;22.75;;
46875;SDS011;32866;50.160;14.768;2022-11-15T06:16:03;48.72;;;25.02;;
46875;SDS011;32866;50.160;14.768;2022-11-15T06:18:31;48.35;;;24.65;;
46875;SDS011;32866;50.160;14.768;2022-11-15T06:21:00;42.70;;;24.23;;
46875;SDS011;32866;50.160;14.768;2022-11-15T06:23:27;55.23;;;25.23;;
46875;SDS011;32866;50.160;14.768;2022-11-15T06:25:52;56.85;;;25.98;;
46875;SDS011;32866;50.160;14.768;2022-11-15T06:28:18;50.67;;;25.63;;
46875;SDS011;32866;50.160;14.768;2022-11-15T06:30:43;52.75;;;24.65;;
46875;SDS011;32866;50.160;14.768;2022-11-15T06:33:08;62.30;;;26.67;;
46875;SDS011;32866;50.160;14.768;2022-11-15T06:35:34;57.45;;;27.13;;
46875;SDS011;32866;50.160;14.768;2022-11-15T06:38:05;52.53;;;29.13;;
46875;SDS011;32866;50.160;14.768;2022-11-15T06:40:36;50.53;;;24.30;;
46875;SDS011;32866;50.160;14.768;2022-11-15T06:43:03;52.63;;;28.00;;
46875;SDS011;32866;50.160;14.768;2022-11-15T06:45:29;52.03;;;26.17;;
46875;SDS011;32866;50.160;14.768;2022-11-15T06:47:55;56.13;;;29.27;;
46875;SDS011;32866;50.160;14.768;2022-11-15T06:50:21;60.10;;;26.65;;
46875;SDS011;32866;50.160;14.768;2022-11-15T06:52:46;87.93;;;30.95;;
46875;SDS011;32866;50.160;14.768;2022-11-15T06:55:12;52.72;;;27.38;;
46875;SDS011;32866;50.160;14.768;2022-11-15T06:57:43;54.58;;;26.23;;
46875;SDS011;32866;50.160;14.768;2022-11-15T07:00:15;52.23;;;25.90;;
46875;SDS011;32866;50.160;14.768;2022-11-15T07:02:41;55.03;;;26.30;;
46875;SDS011;32866;50.160;14.768;2022-11-15T07:05:07;54.25;;;26.13;;
46875;SDS011;32866;50.160;14.768;2022-11-15T07:07:32;51.53;;;26.95;;
46875;SDS011;32866;50.160;14.768;2022-11-15T07:09:58;59.10;;;28.05;;
46875;SDS011;32866;50.160;14.768;2022-11-15T07:12:23;55.13;;;29.33;;
46875;SDS011;32866;50.160;14.768;2022-11-15T07:14:49;54.67;;;29.90;;
46875;SDS011;32866;50.160;14.768;2022-11-15T07:17:14;44.67;;;26.30;;
46875;SDS011;32866;50.160;14.768;2022-11-15T07:19:39;52.58;;;26.90;;
46875;SDS011;32866;50.160;14.768;2022-11-15T07:22:05;53.42;;;27.60;;
46875;SDS011;32866;50.160;14.768;2022-11-15T07:24:30;51.45;;;26.73;;
46875;SDS011;32866;50.160;14.768;2022-11-15T07:26:55;59.20;;;29.00;;
46875;SDS011;32866;50.160;14.768;2022-11-15T07:29:21;50.35;;;25.77;;
46875;SDS011;32866;50.160;14.768;2022-11-15T07:31:46;52.53;;;27.38;;
46875;SDS011;32866;50.160;14.768;2022-11-15T07:34:11;46.85;;;25.17;;
46875;SDS011;32866;50.160;14.768;2022-11-15T07:36:37;50.13;;;26.67;;
46875;SDS011;32866;50.160;14.768;2022-11-15T07:39:02;49.08;;;24.05;;
46875;SDS011;32866;50.160;14.768;2022-11-15T07:41:28;44.35;;;21.88;;
46875;SDS011;32866;50.160;14.768;2022-11-15T07:43:54;39.33;;;22.00;;
46875;SDS011;32866;50.160;14.768;2022-11-15T07:46:19;43.95;;;22.30;;
46875;SDS011;32866;50.160;14.768;2022-11-15T07:48:45;40.47;;;21.50;;
46875;SDS011;32866;50.160;14.768;2022-11-15T07:51:11;40.60;;;21.60;;
46875;SDS011;32866;50.160;14.768;2022-11-15T07:53:38;45.70;;;22.57;;
46875;SDS011;32866;50.160;14.768;2022-11-15T07:56:05;40.13;;;21.40;;
46875;SDS011;32866;50.160;14.768;2022-11-15T07:58:32;40.23;;;20.90;;
46875;SDS011;32866;50.160;14.768;2022-11-15T08:00:57;39.25;;;19.08;;
46875;SDS011;32866;50.160;14.768;2022-11-15T08:03:22;38.13;;;19.67;;
46875;SDS011;32866;50.160;14.768;2022-11-15T08:05:51;43.10;;;20.48;;
46875;SDS011;32866;50.160;14.768;2022-11-15T08:08:17;43.37;;;21.77;;
46875;SDS011;32866;50.160;14.768;2022-11-15T08:10:42;39.03;;;21.42;;
46875;SDS011;32866;50.160;14.768;2022-11-15T08:13:10;43.65;;;21.50;;
46875;SDS011;32866;50.160;14.768;2022-11-15T08:15:36;46.30;;;22.77;;
46875;SDS011;32866;50.160;14.768;2022-11-15T08:18:20;49.83;;;24.60;;
46875;SDS011;32866;50.160;14.768;2022-11-15T08:20:45;45.93;;;24.00;;
46875;SDS011;32866;50.160;14.768;2022-11-15T08:23:11;45.25;;;22.65;;
46875;SDS011;32866;50.160;14.768;2022-11-15T08:25:37;47.47;;;23.03;;
46875;SDS011;32866;50.160;14.768;2022-11-15T08:28:04;43.28;;;23.23;;
46875;SDS011;32866;50.160;14.768;2022-11-15T08:30:31;43.37;;;23.70;;
46875;SDS011;32866;50.160;14.768;2022-11-15T08:33:01;42.10;;;23.33;;
46875;SDS011;32866;50.160;14.768;2022-11-15T08:35:27;51.67;;;26.45;;
46875;SDS011;32866;50.160;14.768;2022-11-15T08:37:53;52.42;;;25.40;;
46875;SDS011;32866;50.160;14.768;2022-11-15T08:40:18;40.47;;;22.65;;
46875;SDS011;32866;50.160;14.768;2022-11-15T08:42:46;42.95;;;24.15;;
46875;SDS011;32866;50.160;14.768;2022-11-15T08:45:12;45.80;;;24.07;;
46875;SDS011;32866;50.160;14.768;2022-11-15T08:47:37;45.30;;;23.48;;
46875;SDS011;32866;50.160;14.768;2022-11-15T08:50:03;40.05;;;21.35;;
46875;SDS011;32866;50.160;14.768;2022-11-15T08:52:29;39.67;;;20.50;;
46875;SDS011;32866;50.160;14.768;2022-11-15T08:54:54;38.28;;;21.17;;
46875;SDS011;32866;50.160;14.768;2022-11-15T08:57:20;38.42;;;20.73;;
46875;SDS011;32866;50.160;14.768;2022-11-15T08:59:45;39.80;;;21.67;;
46875;SDS011;32866;50.160;14.768;2022-11-15T09:02:11;46.78;;;22.33;;
46875;SDS011;32866;50.160;14.768;2022-11-15T09:04:40;39.93;;;21.00;;
46875;SDS011;32866;50.160;14.768;2022-11-15T09:07:07;36.00;;;19.93;;
46875;SDS011;32866;50.160;14.768;2022-11-15T09:09:33;40.93;;;21.07;;
46875;SDS011;32866;50.160;14.768;2022-11-15T09:11:58;40.58;;;21.95;;
46875;SDS011;32866;50.160;14.768;2022-11-15T09:14:24;33.45;;;19.40;;
46875;SDS011;32866;50.160;14.768;2022-11-15T09:16:49;33.28;;;19.20;;
46875;SDS011;32866;50.160;14.768;2022-11-15T09:19:14;35.08;;;19.95;;
46875;SDS011;32866;50.160;14.768;2022-11-15T09:21:40;36.38;;;19.10;;
46875;SDS011;32866;50.160;14.768;2022-11-15T09:24:05;32.85;;;19.20;;
46875;SDS011;32866;50.160;14.768;2022-11-15T09:26:31;38.40;;;20.05;;
46875;SDS011;32866;50.160;14.768;2022-11-15T09:28:56;37.03;;;19.35;;
46875;SDS011;32866;50.160;14.768;2022-11-15T09:31:21;39.80;;;22.10;;
46875;SDS011;32866;50.160;14.768;2022-11-15T09:33:47;36.97;;;19.33;;
46875;SDS011;32866;50.160;14.768;2022-11-15T09:36:12;37.08;;;20.60;;
46875;SDS011;32866;50.160;14.768;2022-11-15T09:38:38;38.20;;;20.42;;
46875;SDS011;32866;50.160;14.768;2022-11-15T09:49:58;37.33;;;20.47;;
46875;SDS011;32866;50.160;14.768;2022-11-15T09:52:26;36.23;;;19.97;;
46875;SDS011;32866;50.160;14.768;2022-11-15T09:54:52;36.33;;;21.63;;
46875;SDS011;32866;50.160;14.768;2022-11-15T09:57:20;37.17;;;19.55;;
46875;SDS011;32866;50.160;14.768;2022-11-15T10:00:47;34.20;;;19.15;;
46875;SDS011;32866;50.160;14.768;2022-11-15T10:05:35;37.07;;;20.67;;
46875;SDS011;32866;50.160;14.768;2022-11-15T10:08:13;36.50;;;18.10;;
46875;SDS011;32866;50.160;14.768;2022-11-15T10:11:00;33.53;;;18.73;;
46875;SDS011;32866;50.160;14.768;2022-11-15T10:13:30;37.23;;;18.87;;
46875;SDS011;32866;50.160;14.768;2022-11-15T10:16:03;32.37;;;18.53;;
46875;SDS011;32866;50.160;14.768;2022-11-15T10:24:23;33.47;;;19.33;;
46875;SDS011;32866;50.160;14.768;2022-11-15T10:26:50;39.03;;;19.07;;
46875;SDS011;32866;50.160;14.768;2022-11-15T10:29:19;35.25;;;17.92;;
46875;SDS011;32866;50.160;14.768;2022-11-15T10:31:45;31.80;;;18.50;;
46875;SDS011;32866;50.160;14.768;2022-11-15T10:34:14;36.97;;;19.63;;
46875;SDS011;32866;50.160;14.768;2022-11-15T10:36:44;32.03;;;19.30;;
46875;SDS011;32866;50.160;14.768;2022-11-15T10:39:20;28.90;;;17.05;;
46875;SDS011;32866;50.160;14.768;2022-11-15T10:41:45;35.22;;;18.85;;
46875;SDS011;32866;50.160;14.768;2022-11-15T10:46:45;39.53;;;21.17;;
46875;SDS011;32866;50.160;14.768;2022-11-15T10:49:31;40.22;;;21.00;;
46875;SDS011;32866;50.160;14.768;2022-11-15T10:52:16;34.43;;;20.17;;
46875;SDS011;32866;50.160;14.768;2022-11-15T10:57:19;38.33;;;19.47;;
46875;SDS011;32866;50.160;14.768;2022-11-15T10:59:53;33.65;;;17.67;;
46875;SDS011;32866;50.160;14.768;2022-11-15T11:02:27;29.10;;;16.43;;
46875;SDS011;32866;50.160;14.768;2022-11-15T11:05:02;39.97;;;19.80;;
46875;SDS011;32866;50.160;14.768;2022-11-15T11:07:54;34.03;;;17.73;;
46875;SDS011;32866;50.160;14.768;2022-11-15T11:10:22;32.93;;;19.03;;
46875;SDS011;32866;50.160;14.768;2022-11-15T11:12:47;29.73;;;16.67;;
46875;SDS011;32866;50.160;14.768;2022-11-15T11:15:14;34.47;;;19.38;;
46875;SDS011;32866;50.160;14.768;2022-11-15T11:20:45;32.73;;;18.43;;
46875;SDS011;32866;50.160;14.768;2022-11-15T11:26:25;31.73;;;17.87;;
46875;SDS011;32866;50.160;14.768;2022-11-15T11:42:58;21.40;;;13.30;;
46875;SDS011;32866;50.160;14.768;2022-11-15T11:45:55;23.55;;;12.98;;
46875;SDS011;32866;50.160;14.768;2022-11-15T11:51:08;24.50;;;13.03;;
46875;SDS011;32866;50.160;14.768;2022-11-15T11:53:47;22.53;;;13.03;;
46875;SDS011;32866;50.160;14.768;2022-11-15T11:56:24;27.33;;;14.03;;
46875;SDS011;32866;50.160;14.768;2022-11-15T11:58:53;20.50;;;12.20;;
46875;SDS011;32866;50.160;14.768;2022-11-15T12:01:25;28.23;;;14.77;;
46875;SDS011;32866;50.160;14.768;2022-11-15T12:12:06;22.63;;;13.47;;
46875;SDS011;32866;50.160;14.768;2022-11-15T12:14:42;29.05;;;14.00;;
46875;SDS011;32866;50.160;14.768;2022-11-15T12:17:16;24.60;;;13.85;;
46875;SDS011;32866;50.160;14.768;2022-11-15T12:19:45;30.20;;;16.53;;
46875;SDS011;32866;50.160;14.768;2022-11-15T12:22:25;29.00;;;14.82;;
46875;SDS011;32866;50.160;14.768;2022-11-15T12:25:08;28.03;;;14.20;;
46875;SDS011;32866;50.160;14.768;2022-11-15T12:27:45;29.57;;;15.40;;
46875;SDS011;32866;50.160;14.768;2022-11-15T12:30:13;26.03;;;15.97;;
46875;SDS011;32866;50.160;14.768;2022-11-15T12:32:49;28.47;;;14.93;;
46875;SDS011;32866;50.160;14.768;2022-11-15T12:35:37;35.57;;;16.57;;
46875;SDS011;32866;50.160;14.768;2022-11-15T12:38:08;32.93;;;16.53;;
46875;SDS011;32866;50.160;14.768;2022-11-15T12:41:20;35.53;;;18.73;;
46875;SDS011;32866;50.160;14.768;2022-11-15T12:43:43;39.50;;;18.03;;
46875;SDS011;32866;50.160;14.768;2022-11-15T12:46:23;52.13;;;25.03;;
46875;SDS011;32866;50.160;14.768;2022-11-15T12:59:52;35.13;;;16.60;;
46875;SDS011;32866;50.160;14.768;2022-11-15T13:02:41;36.33;;;18.50;;
46875;SDS011;32866;50.160;14.768;2022-11-15T13:17:37;32.93;;;15.47;;
46875;SDS011;32866;50.160;14.768;2022-11-15T13:22:48;35.90;;;17.83;;
46875;SDS011;32866;50.160;14.768;2022-11-15T13:33:46;33.33;;;17.47;;
46875;SDS011;32866;50.160;14.768;2022-11-15T13:38:58;34.80;;;18.45;;
46875;SDS011;32866;50.160;14.768;2022-11-15T13:41:26;35.57;;;17.27;;
46875;SDS011;32866;50.160;14.768;2022-11-15T13:43:54;45.50;;;19.53;;
46875;SDS011;32866;50.160;14.768;2022-11-15T13:48:58;44.03;;;18.57;;
46875;SDS011;32866;50.160;14.768;2022-11-15T13:51:30;46.87;;;19.73;;
46875;SDS011;32866;50.160;14.768;2022-11-15T13:56:46;46.07;;;19.07;;
46875;SDS011;32866;50.160;14.768;2022-11-15T13:59:17;43.20;;;19.00;;
46875;SDS011;32866;50.160;14.768;2022-11-15T14:02:11;42.23;;;20.10;;
46875;SDS011;32866;50.160;14.768;2022-11-15T14:04:39;36.87;;;19.57;;
46875;SDS011;32866;50.160;14.768;2022-11-15T14:07:22;43.67;;;21.60;;
46875;SDS011;32866;50.160;14.768;2022-11-15T14:09:49;38.73;;;18.90;;
46875;SDS011;32866;50.160;14.768;2022-11-15T14:12:34;46.38;;;21.35;;
46875;SDS011;32866;50.160;14.768;2022-11-15T14:15:18;45.40;;;19.73;;
46875;SDS011;32866;50.160;14.768;2022-11-15T14:18:04;42.47;;;19.93;;
46875;SDS011;32866;50.160;14.768;2022-11-15T14:20:37;51.47;;;20.47;;
46875;SDS011;32866;50.160;14.768;2022-11-15T14:23:05;47.23;;;19.97;;
46875;SDS011;32866;50.160;14.768;2022-11-15T14:25:54;48.90;;;22.60;;
46875;SDS011;32866;50.160;14.768;2022-11-15T14:30:50;52.78;;;23.10;;
46875;SDS011;32866;50.160;14.768;2022-11-15T14:33:24;55.43;;;24.50;;
46875;SDS011;32866;50.160;14.768;2022-11-15T14:35:58;47.77;;;26.13;;
46875;SDS011;32866;50.160;14.768;2022-11-15T14:38:28;54.00;;;25.10;;
46875;SDS011;32866;50.160;14.768;2022-11-15T14:40:53;52.40;;;25.20;;
46875;SDS011;32866;50.160;14.768;2022-11-15T14:43:20;58.33;;;28.33;;
46875;SDS011;32866;50.160;14.768;2022-11-15T14:45:46;64.60;;;29.92;;
46875;SDS011;32866;50.160;14.768;2022-11-15T14:48:11;68.38;;;29.73;;
46875;SDS011;32866;50.160;14.768;2022-11-15T14:50:36;59.58;;;26.08;;
46875;SDS011;32866;50.160;14.768;2022-11-15T14:53:02;61.28;;;25.73;;
46875;SDS011;32866;50.160;14.768;2022-11-15T14:55:29;57.92;;;24.08;;
46875;SDS011;32866;50.160;14.768;2022-11-15T14:57:58;63.70;;;26.63;;
46875;SDS011;32866;50.160;14.768;2022-11-15T15:00:24;57.00;;;25.27;;
46875;SDS011;32866;50.160;14.768;2022-11-15T15:02:50;50.03;;;23.73;;
46875;SDS011;32866;50.160;14.768;2022-11-15T15:05:51;64.27;;;26.97;;
46875;SDS011;32866;50.160;14.768;2022-11-15T15:08:10;72.63;;;32.50;;
46875;SDS011;32866;50.160;14.768;2022-11-15T15:13:08;59.07;;;27.63;;
46875;SDS011;32866;50.160;14.768;2022-11-15T15:15:42;174.82;;;74.80;;
46875;SDS011;32866;50.160;14.768;2022-11-15T15:18:08;78.05;;;34.90;;
46875;SDS011;32866;50.160;14.768;2022-11-15T15:20:34;71.43;;;32.85;;
46875;SDS011;32866;50.160;14.768;2022-11-15T15:23:01;83.83;;;36.43;;
46875;SDS011;32866;50.160;14.768;2022-11-15T15:25:29;70.70;;;30.88;;
46875;SDS011;32866;50.160;14.768;2022-11-15T15:27:57;64.87;;;30.13;;
46875;SDS011;32866;50.160;14.768;2022-11-15T15:30:23;99.47;;;38.15;;
46875;SDS011;32866;50.160;14.768;2022-11-15T15:32:49;120.80;;;47.80;;
46875;SDS011;32866;50.160;14.768;2022-11-15T15:35:15;122.00;;;47.15;;
46875;SDS011;32866;50.160;14.768;2022-11-15T15:37:42;154.33;;;54.90;;
46875;SDS011;32866;50.160;14.768;2022-11-15T15:42:45;77.55;;;30.95;;
46875;SDS011;32866;50.160;14.768;2022-11-15T15:45:11;76.13;;;31.25;;
46875;SDS011;32866;50.160;14.768;2022-11-15T15:47:37;100.82;;;39.70;;
46875;SDS011;32866;50.160;14.768;2022-11-15T15:52:52;60.87;;;28.20;;
46875;SDS011;32866;50.160;14.768;2022-11-15T15:55:19;69.80;;;28.37;;
46875;SDS011;32866;50.160;14.768;2022-11-15T15:57:45;63.63;;;28.83;;
46875;SDS011;32866;50.160;14.768;2022-11-15T16:00:11;64.00;;;29.25;;
46875;SDS011;32866;50.160;14.768;2022-11-15T16:02:37;64.35;;;30.00;;
46875;SDS011;32866;50.160;14.768;2022-11-15T16:05:02;84.30;;;37.35;;
46875;SDS011;32866;50.160;14.768;2022-11-15T16:07:28;88.03;;;37.97;;
46875;SDS011;32866;50.160;14.768;2022-11-15T16:09:54;84.30;;;36.97;;
46875;SDS011;32866;50.160;14.768;2022-11-15T16:12:33;82.17;;;34.17;;
46875;SDS011;32866;50.160;14.768;2022-11-15T16:15:00;74.77;;;31.50;;
46875;SDS011;32866;50.160;14.768;2022-11-15T16:20:04;78.40;;;30.07;;
46875;SDS011;32866;50.160;14.768;2022-11-15T16:24:56;81.03;;;33.20;;
46875;SDS011;32866;50.160;14.768;2022-11-15T16:27:21;85.60;;;34.72;;
46875;SDS011;32866;50.160;14.768;2022-11-15T16:29:47;96.22;;;36.42;;
46875;SDS011;32866;50.160;14.768;2022-11-15T16:32:13;83.82;;;35.90;;
46875;SDS011;32866;50.160;14.768;2022-11-15T16:34:39;75.15;;;33.88;;
46875;SDS011;32866;50.160;14.768;2022-11-15T16:37:04;86.22;;;35.67;;
46875;SDS011;32866;50.160;14.768;2022-11-15T16:39:31;87.40;;;36.13;;
46875;SDS011;32866;50.160;14.768;2022-11-15T16:41:59;96.53;;;42.58;;
46875;SDS011;32866;50.160;14.768;2022-11-15T16:44:25;92.07;;;40.00;;
46875;SDS011;32866;50.160;14.768;2022-11-15T16:46:51;93.30;;;36.60;;
46875;SDS011;32866;50.160;14.768;2022-11-15T16:49:18;105.37;;;43.87;;
46875;SDS011;32866;50.160;14.768;2022-11-15T16:51:45;97.23;;;40.70;;
46875;SDS011;32866;50.160;14.768;2022-11-15T16:54:11;98.40;;;42.27;;
46875;SDS011;32866;50.160;14.768;2022-11-15T16:56:37;94.43;;;36.38;;
46875;SDS011;32866;50.160;14.768;2022-11-15T16:59:03;86.50;;;39.20;;